Time;durP1;ratioP1;P1;durP2;ratioP2;P2;SDS_P1;SDS_P2;PMS_P1;PMS_P2;Temp;Humidity;BMP_temperature;BMP_pressure;BME280_temperature;BME280_humidity;BME280_pressure;Samples;Min_cycle;Max_cycle;Signal;HPM_P1;HPM_P2
2021/08/09 00:01:02;;;;;;;7.88;3.67;;;18.00;99.90;;;;;;5059061;28;20029;-73
2021/08/09 00:03:28;;;;;;;6.80;3.58;;;18.00;99.90;;;;;;5053843;28;20044;-74
2021/08/09 00:05:54;;;;;;;6.18;3.20;;;17.90;99.90;;;;;;5054434;28;20074;-74
2021/08/09 00:08:20;;;;;;;8.82;3.75;;;17.90;99.90;;;;;;5059354;28;20028;-74
2021/08/09 00:10:45;;;;;;;6.40;3.65;;;17.90;99.90;;;;;;5064390;28;20132;-74
2021/08/09 00:13:11;;;;;;;6.60;3.50;;;17.90;99.90;;;;;;5054655;28;20020;-74
2021/08/09 00:15:37;;;;;;;7.13;4.13;;;18.00;99.90;;;;;;5056565;28;20112;-75
2021/08/09 00:18:03;;;;;;;6.72;3.20;;;18.00;99.90;;;;;;5048758;28;20473;-74
2021/08/09 00:20:29;;;;;;;8.38;3.80;;;18.00;99.90;;;;;;5051452;28;20531;-74
2021/08/09 00:22:55;;;;;;;7.88;3.95;;;17.90;99.90;;;;;;5048068;28;20021;-75
2021/08/09 00:25:21;;;;;;;9.93;3.65;;;17.90;99.90;;;;;;5060267;28;20024;-75
2021/08/09 00:27:47;;;;;;;6.50;4.13;;;17.90;99.90;;;;;;5050980;28;20071;-73
2021/08/09 00:30:13;;;;;;;10.52;3.50;;;17.80;99.90;;;;;;5057470;28;20129;-76
2021/08/09 00:32:39;;;;;;;7.07;3.90;;;17.90;99.90;;;;;;5063084;28;20045;-74
2021/08/09 00:35:06;;;;;;;5.32;3.38;;;17.80;99.90;;;;;;5030192;28;20037;-74
2021/08/09 00:37:32;;;;;;;12.90;3.65;;;17.80;99.90;;;;;;5059160;28;20032;-75
2021/08/09 00:39:58;;;;;;;8.45;3.45;;;17.90;99.90;;;;;;5056976;28;20021;-73
2021/08/09 00:42:24;;;;;;;8.30;4.30;;;17.90;99.90;;;;;;5049110;28;20031;-76
2021/08/09 00:44:49;;;;;;;7.32;3.60;;;17.80;99.90;;;;;;5059081;28;20032;-77
2021/08/09 00:47:15;;;;;;;5.07;3.05;;;17.80;99.90;;;;;;5053580;28;20168;-73
2021/08/09 00:49:41;;;;;;;8.05;3.58;;;17.70;99.90;;;;;;5056122;28;20032;-78
2021/08/09 00:52:07;;;;;;;7.35;3.63;;;17.70;99.90;;;;;;5046866;28;20039;-76
2021/08/09 00:54:34;;;;;;;6.22;3.58;;;17.70;99.90;;;;;;5055253;28;20032;-78
2021/08/09 00:57:03;;;;;;;7.22;3.33;;;17.70;99.90;;;;;;5045463;28;20041;-78
2021/08/09 00:59:29;;;;;;;8.18;3.92;;;17.60;99.90;;;;;;5055129;28;21788;-78
2021/08/09 01:01:55;;;;;;;9.65;4.15;;;17.70;99.90;;;;;;5062498;28;20064;-78
2021/08/09 01:04:21;;;;;;;5.68;3.58;;;17.70;99.90;;;;;;5055319;28;20631;-78
2021/08/09 01:06:47;;;;;;;8.55;4.22;;;17.70;99.90;;;;;;5063715;28;20097;-78
2021/08/09 01:09:16;;;;;;;6.93;3.42;;;17.70;99.90;;;;;;5054709;28;20083;-76
2021/08/09 01:12:08;;;;;;;6.05;3.42;;;17.70;99.90;;;;;;5058467;28;20480;-77
2021/08/09 01:15:10;;;;;;;18.80;4.28;;;17.60;99.90;;;;;;5046891;28;20067;-76
2021/08/09 01:17:39;;;;;;;8.23;3.33;;;17.60;99.90;;;;;;5056580;28;20043;-77
2021/08/09 01:20:50;;;;;;;6.80;3.60;;;17.60;99.90;;;;;;5061208;28;20024;-78
2021/08/09 01:23:36;;;;;;;6.18;3.50;;;17.60;99.90;;;;;;5050667;28;20045;-78
2021/08/09 01:26:35;;;;;;;6.38;3.47;;;17.60;99.90;;;;;;5059884;28;20024;-76
2021/08/09 01:29:03;;;;;;;7.25;3.58;;;17.60;99.90;;;;;;5052146;28;20036;-78
2021/08/09 01:31:42;;;;;;;9.43;3.72;;;17.50;99.90;;;;;;5060020;28;20017;-78
2021/08/09 01:34:10;;;;;;;8.30;4.13;;;17.50;99.90;;;;;;5056287;28;20029;-78
2021/08/09 01:36:39;;;;;;;7.93;3.78;;;17.50;99.90;;;;;;5055516;28;20024;-78
2021/08/09 01:39:05;;;;;;;9.57;3.42;;;17.50;99.90;;;;;;5045941;28;20102;-79
2021/08/09 01:41:32;;;;;;;11.10;3.92;;;17.60;99.90;;;;;;5058428;28;20021;-74
2021/08/09 01:43:58;;;;;;;6.38;3.20;;;17.50;99.90;;;;;;5047210;28;20476;-76
2021/08/09 01:46:24;;;;;;;11.80;3.28;;;17.60;99.90;;;;;;5053754;28;20025;-78
2021/08/09 01:48:51;;;;;;;6.43;3.67;;;17.50;99.90;;;;;;5060326;28;20088;-78
2021/08/09 01:51:17;;;;;;;7.38;3.15;;;17.50;99.90;;;;;;5052675;28;20031;-78
2021/08/09 01:53:43;;;;;;;10.00;3.22;;;17.50;99.90;;;;;;5060350;28;20029;-78
2021/08/09 01:56:10;;;;;;;9.50;4.05;;;17.50;99.90;;;;;;5036283;28;20016;-78
2021/08/09 01:58:36;;;;;;;7.35;3.08;;;17.50;99.90;;;;;;5049820;28;20033;-78
2021/08/09 02:01:06;;;;;;;6.88;4.18;;;17.50;99.90;;;;;;5048227;28;20507;-78
2021/08/09 02:03:32;;;;;;;7.47;3.75;;;17.50;99.90;;;;;;5054509;28;20044;-78
2021/08/09 02:05:58;;;;;;;11.10;3.80;;;17.50;99.90;;;;;;5060931;28;20420;-78
2021/08/09 02:08:24;;;;;;;7.57;3.35;;;17.50;99.90;;;;;;5050512;28;20474;-78
2021/08/09 02:11:17;;;;;;;5.70;3.60;;;17.50;99.90;;;;;;5067626;28;20407;-76
2021/08/09 02:13:49;;;;;;;;;;;17.40;99.90;;;;;;5010200;28;20033;-77
2021/08/09 02:16:21;;;;;;;7.28;3.47;;;17.50;99.90;;;;;;5023925;28;19913;-77
2021/08/09 02:18:54;;;;;;;14.20;3.92;;;17.50;99.90;;;;;;5051621;28;20104;-78
2021/08/09 02:21:26;;;;;;;8.38;3.70;;;17.50;99.90;;;;;;5022069;28;20032;-78
2021/08/09 02:24:01;;;;;;;10.50;3.67;;;17.50;99.90;;;;;;5053423;28;20081;-76
2021/08/09 02:26:34;;;;;;;14.05;4.32;;;17.50;99.90;;;;;;5054745;28;20052;-76
2021/08/09 02:29:09;;;;;;;6.57;3.33;;;17.50;99.90;;;;;;5049732;28;20071;-78
2021/08/09 02:31:37;;;;;;;11.32;3.65;;;17.40;99.90;;;;;;5063008;28;20051;-78
2021/08/09 02:34:05;;;;;;;7.70;2.90;;;17.50;99.90;;;;;;5041409;28;20032;-78
2021/08/09 02:36:32;;;;;;;8.73;4.00;;;17.50;99.90;;;;;;5055320;28;20146;-78
2021/08/09 02:38:59;;;;;;;9.57;3.78;;;17.50;99.90;;;;;;5051363;28;20040;-78
2021/08/09 02:41:25;;;;;;;8.93;3.47;;;17.50;99.90;;;;;;5055725;28;20021;-75
2021/08/09 02:43:51;;;;;;;10.20;3.65;;;17.50;99.90;;;;;;5054893;28;20089;-77
2021/08/09 02:46:18;;;;;;;9.18;3.47;;;17.40;99.90;;;;;;5052567;28;20028;-75
2021/08/09 02:48:47;;;;;;;11.80;3.58;;;17.50;99.90;;;;;;5042012;28;20490;-79
2021/08/09 02:51:15;;;;;;;6.72;3.22;;;17.50;99.90;;;;;;5053194;28;20086;-78
2021/08/09 02:53:41;;;;;;;10.85;4.00;;;17.50;99.90;;;;;;5048393;28;20028;-78
2021/08/09 02:56:07;;;;;;;9.18;3.75;;;17.50;99.90;;;;;;5047807;28;20025;-79
2021/08/09 02:58:34;;;;;;;9.35;4.03;;;17.50;99.90;;;;;;5052976;28;20035;-79
2021/08/09 03:01:00;;;;;;;9.68;3.65;;;17.50;99.90;;;;;;5035019;28;20021;-79
2021/08/09 03:03:29;;;;;;;10.13;3.47;;;17.50;99.90;;;;;;5055903;28;20375;-75
2021/08/09 03:05:58;;;;;;;11.30;3.70;;;17.50;99.90;;;;;;5050889;28;20025;-78
2021/08/09 03:08:25;;;;;;;9.90;4.00;;;17.50;99.90;;;;;;5060706;28;20144;-78
2021/08/09 03:10:51;;;;;;;5.63;4.03;;;17.50;99.90;;;;;;5054969;28;20028;-78
2021/08/09 03:13:21;;;;;;;11.57;3.33;;;17.50;99.90;;;;;;5051261;28;20028;-79
2021/08/09 03:15:47;;;;;;;11.60;4.43;;;17.50;99.90;;;;;;5003920;28;1108077;-78
2021/08/09 03:18:12;;;;;;;9.32;4.70;;;17.50;99.90;;;;;;5053555;28;20021;-79
2021/08/09 03:20:38;;;;;;;9.55;3.50;;;17.50;99.90;;;;;;5058112;28;20021;-78
2021/08/09 03:23:04;;;;;;;7.15;3.40;;;17.50;99.90;;;;;;5052123;28;20096;-79
2021/08/09 03:25:29;;;;;;;10.25;3.88;;;17.40;99.90;;;;;;5045055;28;20036;-77
2021/08/09 03:27:55;;;;;;;9.48;3.35;;;17.50;99.90;;;;;;5055225;28;20421;-79
2021/08/09 03:30:20;;;;;;;7.88;3.30;;;17.40;99.90;;;;;;5059509;28;20107;-77
2021/08/09 03:32:46;;;;;;;9.95;3.60;;;17.30;99.90;;;;;;5051720;28;20033;-78
2021/08/09 03:35:12;;;;;;;11.80;3.95;;;17.30;99.90;;;;;;5053268;28;20107;-80
2021/08/09 03:37:38;;;;;;;11.77;4.85;;;17.40;99.90;;;;;;5044440;28;20021;-78
2021/08/09 03:40:04;;;;;;;9.48;3.50;;;17.40;99.90;;;;;;5052896;28;20021;-77
2021/08/09 03:42:30;;;;;;;10.13;3.50;;;17.40;99.90;;;;;;5051125;28;20533;-78
2021/08/09 03:44:56;;;;;;;10.05;3.78;;;17.40;99.90;;;;;;5049057;28;20040;-78
2021/08/09 03:47:22;;;;;;;8.55;4.00;;;17.40;99.90;;;;;;5046484;28;20079;-78
2021/08/09 03:49:47;;;;;;;10.32;3.97;;;17.40;99.90;;;;;;5056568;28;20029;-79
2021/08/09 03:52:13;;;;;;;11.02;3.08;;;17.50;99.90;;;;;;5049654;28;20374;-79
2021/08/09 03:54:39;;;;;;;8.32;3.80;;;17.50;99.90;;;;;;5051392;28;20366;-79
2021/08/09 03:57:05;;;;;;;7.68;3.25;;;17.40;99.90;;;;;;5062018;28;20040;-79
2021/08/09 03:59:31;;;;;;;11.45;3.92;;;17.40;99.90;;;;;;5055108;28;20473;-79
2021/08/09 04:01:56;;;;;;;7.38;3.42;;;17.40;99.90;;;;;;5052062;28;20155;-78
2021/08/09 04:04:22;;;;;;;11.45;3.65;;;17.40;99.90;;;;;;5049725;28;20127;-78
2021/08/09 04:06:48;;;;;;;9.85;3.50;;;17.40;99.90;;;;;;5057365;28;20066;-78
2021/08/09 04:09:13;;;;;;;10.70;3.83;;;17.30;99.90;;;;;;5054034;28;20380;-79
2021/08/09 04:11:39;;;;;;;13.38;3.88;;;17.30;99.90;;;;;;5057310;28;20025;-79
2021/08/09 04:14:05;;;;;;;7.90;3.53;;;17.30;99.90;;;;;;5050232;28;20588;-74
2021/08/09 04:16:31;;;;;;;7.97;3.15;;;17.30;99.90;;;;;;5049780;28;20037;-78
2021/08/09 04:18:56;;;;;;;9.15;3.53;;;17.30;99.90;;;;;;5046023;28;20052;-76
2021/08/09 04:21:22;;;;;;;7.28;3.55;;;17.30;99.90;;;;;;5045629;28;20149;-78
2021/08/09 04:23:48;;;;;;;8.25;3.45;;;17.20;99.90;;;;;;5059610;28;20041;-77
2021/08/09 04:26:15;;;;;;;9.57;3.65;;;17.30;99.90;;;;;;5056602;28;20422;-77
2021/08/09 04:28:42;;;;;;;7.43;3.35;;;17.30;99.90;;;;;;5059287;28;20048;-74
2021/08/09 04:31:08;;;;;;;8.98;3.45;;;17.20;99.90;;;;;;5054564;28;20116;-75
2021/08/09 04:33:43;;;;;;;7.13;3.13;;;17.30;99.90;;;;;;5054328;28;20187;-80
2021/08/09 04:36:09;;;;;;;4.75;3.38;;;17.30;99.90;;;;;;5062572;28;20028;-78
2021/08/09 04:38:35;;;;;;;7.70;3.28;;;17.30;99.90;;;;;;5059461;28;20362;-78
2021/08/09 04:41:10;;;;;;;4.97;2.90;;;17.30;99.90;;;;;;5061331;28;20020;-77
2021/08/09 04:43:37;;;;;;;6.85;3.03;;;17.20;99.90;;;;;;5043458;28;20076;-79
2021/08/09 04:46:04;;;;;;;7.13;3.55;;;17.20;99.90;;;;;;5055360;28;20082;-78
2021/08/09 04:48:30;;;;;;;5.25;3.10;;;17.20;99.90;;;;;;5056839;28;20098;-76
2021/08/09 04:50:55;;;;;;;9.45;3.22;;;17.20;99.90;;;;;;5052523;28;20468;-78
2021/08/09 04:53:21;;;;;;;8.52;3.13;;;17.20;99.90;;;;;;5039640;28;20376;-79
2021/08/09 04:55:47;;;;;;;13.38;3.42;;;17.20;99.90;;;;;;5056833;28;20029;-77
2021/08/09 04:58:13;;;;;;;8.35;3.40;;;17.30;99.90;;;;;;5050848;28;20028;-78
2021/08/09 05:00:38;;;;;;;6.32;3.00;;;17.30;99.90;;;;;;5053024;28;20487;-79
2021/08/09 05:03:04;;;;;;;7.47;3.25;;;17.30;99.90;;;;;;5030282;28;20469;-77
2021/08/09 05:05:29;;;;;;;4.82;3.03;;;17.30;99.90;;;;;;5059630;28;20102;-78
2021/08/09 05:07:56;;;;;;;6.82;3.17;;;17.40;99.90;;;;;;5026899;28;20416;-78
2021/08/09 05:10:23;;;;;;;9.95;2.85;;;17.40;99.90;;;;;;5055160;28;20104;-78
2021/08/09 05:12:48;;;;;;;8.55;2.83;;;17.40;99.90;;;;;;5052926;28;20027;-78
2021/08/09 05:15:14;;;;;;;8.43;3.28;;;17.40;99.90;;;;;;5057496;28;20096;-78
2021/08/09 05:17:40;;;;;;;7.07;3.03;;;17.30;99.90;;;;;;5054863;28;20120;-78
2021/08/09 05:20:08;;;;;;;8.90;3.17;;;17.30;99.90;;;;;;5063205;28;20029;-76
2021/08/09 05:22:33;;;;;;;7.13;3.10;;;17.30;99.90;;;;;;5049402;28;20428;-79
2021/08/09 05:24:59;;;;;;;6.03;3.15;;;17.30;99.90;;;;;;5050075;28;20030;-79
2021/08/09 05:27:25;;;;;;;6.35;2.83;;;17.40;99.90;;;;;;5053161;28;20484;-79
2021/08/09 05:29:50;;;;;;;6.57;3.35;;;17.40;99.90;;;;;;5058797;28;20048;-79
2021/08/09 05:32:16;;;;;;;6.22;2.78;;;17.40;99.90;;;;;;5049978;28;20029;-77
2021/08/09 05:34:46;;;;;;;3.97;2.60;;;17.30;99.90;;;;;;5056992;28;20028;-79
2021/08/09 05:37:13;;;;;;;5.05;2.60;;;17.40;99.90;;;;;;5048186;28;20021;-79
2021/08/09 05:39:39;;;;;;;5.00;2.75;;;17.30;99.90;;;;;;5048599;28;20021;-79
2021/08/09 05:42:04;;;;;;;7.38;2.92;;;17.40;99.90;;;;;;5060625;28;20028;-79
2021/08/09 05:44:30;;;;;;;4.25;2.60;;;17.50;99.90;;;;;;5060236;28;20106;-79
2021/08/09 05:46:55;;;;;;;7.38;2.83;;;17.50;99.90;;;;;;5056934;28;20025;-79
2021/08/09 05:49:21;;;;;;;8.88;3.05;;;17.50;99.90;;;;;;5055288;28;20064;-79
2021/08/09 05:51:47;;;;;;;6.38;2.78;;;17.50;99.90;;;;;;5045742;28;20049;-78
2021/08/09 05:54:12;;;;;;;4.13;3.03;;;17.50;99.90;;;;;;5038488;28;20013;-78
2021/08/09 05:56:38;;;;;;;4.60;2.42;;;17.40;99.90;;;;;;5056865;28;20090;-79
2021/08/09 05:59:04;;;;;;;7.05;2.78;;;17.50;99.90;;;;;;5055557;28;20056;-78
2021/08/09 06:01:30;;;;;;;6.72;3.00;;;17.60;99.90;;;;;;5054132;28;20458;-78
2021/08/09 06:03:56;;;;;;;5.82;2.47;;;17.50;99.90;;;;;;5056686;28;20079;-79
2021/08/09 06:06:22;;;;;;;8.10;3.28;;;17.60;99.90;;;;;;5048406;28;20017;-78
2021/08/09 06:08:48;;;;;;;8.80;2.90;;;17.60;99.90;;;;;;5056552;28;20504;-79
2021/08/09 06:11:13;;;;;;;5.57;2.80;;;17.60;99.90;;;;;;5053882;28;20112;-78
2021/08/09 06:13:39;;;;;;;5.65;3.10;;;17.60;99.90;;;;;;5057550;28;20100;-78
2021/08/09 06:16:05;;;;;;;7.22;3.00;;;17.60;99.90;;;;;;5055297;28;20048;-79
2021/08/09 06:18:34;;;;;;;6.47;2.60;;;17.50;99.90;;;;;;5046353;28;20037;-78
2021/08/09 06:21:03;;;;;;;6.97;2.67;;;17.50;99.90;;;;;;5056661;28;20473;-80
2021/08/09 06:23:29;;;;;;;4.82;3.00;;;17.60;99.90;;;;;;5047853;28;20033;-78
2021/08/09 06:25:55;;;;;;;8.07;2.72;;;17.60;99.90;;;;;;5048096;28;20041;-78
2021/08/09 06:28:22;;;;;;;9.38;2.50;;;17.70;99.90;;;;;;5059378;28;20021;-78
2021/08/09 06:30:48;;;;;;;8.70;2.83;;;17.70;99.90;;;;;;5059714;28;20025;-76
2021/08/09 06:33:14;;;;;;;5.78;2.42;;;17.70;99.90;;;;;;5045045;28;20485;-76
2021/08/09 06:35:40;;;;;;;5.88;2.58;;;17.60;99.90;;;;;;5052967;28;20432;-78
2021/08/09 06:38:07;;;;;;;7.45;3.03;;;17.70;99.90;;;;;;5051264;28;20045;-79
2021/08/09 06:40:33;;;;;;;5.07;2.42;;;17.70;99.90;;;;;;5054033;28;20154;-76
2021/08/09 06:43:01;;;;;;;5.18;2.22;;;17.70;99.90;;;;;;5057535;28;20032;-78
2021/08/09 06:45:26;;;;;;;6.68;2.33;;;17.70;99.90;;;;;;5044960;28;20268;-78
2021/08/09 06:47:52;;;;;;;4.10;2.45;;;17.80;99.90;;;;;;5057179;28;20419;-76
2021/08/09 06:50:18;;;;;;;6.20;2.58;;;17.90;99.90;;;;;;5048985;28;20023;-78
2021/08/09 06:52:43;;;;;;;4.88;2.67;;;17.90;99.90;;;;;;5053903;28;20717;-78
2021/08/09 06:55:09;;;;;;;3.75;2.42;;;17.90;99.90;;;;;;5055520;28;20020;-75
2021/08/09 06:57:35;;;;;;;9.18;3.13;;;17.90;99.90;;;;;;5057390;28;20087;-77
2021/08/09 07:00:02;;;;;;;6.28;2.92;;;17.90;99.90;;;;;;5053364;28;20016;-77
2021/08/09 07:02:28;;;;;;;6.40;3.05;;;18.00;99.90;;;;;;5051743;28;20028;-76
2021/08/09 07:04:54;;;;;;;9.48;2.75;;;17.90;99.90;;;;;;5051076;28;20033;-78
2021/08/09 07:07:20;;;;;;;5.65;2.47;;;18.10;99.90;;;;;;5049461;28;20029;-77
2021/08/09 07:09:45;;;;;;;5.95;2.65;;;18.10;99.90;;;;;;5049266;28;20366;-77
2021/08/09 07:12:11;;;;;;;6.07;2.65;;;18.30;99.90;;;;;;5051114;28;20057;-76
2021/08/09 07:14:37;;;;;;;5.53;2.58;;;18.30;99.90;;;;;;5047160;28;20497;-77
2021/08/09 07:17:03;;;;;;;5.07;2.40;;;18.30;99.90;;;;;;5030588;28;20068;-79
2021/08/09 07:19:28;;;;;;;4.65;2.10;;;18.20;99.90;;;;;;5056194;28;20075;-77
2021/08/09 07:21:54;;;;;;;4.25;2.60;;;18.20;99.90;;;;;;5049075;28;20021;-77
2021/08/09 07:24:20;;;;;;;5.68;2.63;;;18.20;99.90;;;;;;5049486;28;20029;-76
2021/08/09 07:26:46;;;;;;;4.90;2.60;;;18.20;99.90;;;;;;5045327;28;20131;-78
2021/08/09 07:29:11;;;;;;;4.68;2.33;;;18.20;99.90;;;;;;5050004;28;20037;-77
2021/08/09 07:31:37;;;;;;;3.70;2.20;;;18.10;99.90;;;;;;5052900;28;20060;-77
2021/08/09 07:34:02;;;;;;;5.10;2.58;;;18.30;99.90;;;;;;5047886;28;20029;-75
2021/08/09 07:36:28;;;;;;;5.20;2.85;;;18.30;99.90;;;;;;5052629;28;20033;-76
2021/08/09 07:38:54;;;;;;;4.05;1.85;;;18.40;99.90;;;;;;5045625;28;20381;-77
2021/08/09 07:41:19;;;;;;;7.18;2.05;;;18.40;99.90;;;;;;5049717;28;20685;-77
2021/08/09 07:43:47;;;;;;;6.57;2.60;;;18.50;99.90;;;;;;5047306;28;20055;-76
2021/08/09 07:46:13;;;;;;;5.85;2.78;;;18.60;99.90;;;;;;5048480;28;20017;-76
2021/08/09 07:48:39;;;;;;;6.15;2.88;;;18.50;99.90;;;;;;5046481;28;20385;-77
2021/08/09 07:51:04;;;;;;;5.32;2.05;;;18.60;99.90;;;;;;5049813;28;20013;-77
2021/08/09 07:53:30;;;;;;;5.20;2.85;;;18.70;99.90;;;;;;5046400;28;20025;-76
2021/08/09 07:55:56;;;;;;;7.68;2.25;;;18.90;99.90;;;;;;5049092;28;20020;-77
2021/08/09 07:58:22;;;;;;;3.28;2.05;;;19.00;99.90;;;;;;5054240;28;20525;-77
2021/08/09 08:00:47;;;;;;;6.10;2.10;;;19.10;99.90;;;;;;5060166;28;20024;-77
2021/08/09 08:03:13;;;;;;;4.07;1.77;;;19.40;99.90;;;;;;5052779;28;20024;-73
2021/08/09 08:05:39;;;;;;;2.83;2.03;;;19.40;99.90;;;;;;5049633;28;20020;-74
2021/08/09 08:08:05;;;;;;;3.38;2.40;;;19.50;99.90;;;;;;5050392;28;20028;-74
2021/08/09 08:10:31;;;;;;;4.78;1.75;;;19.70;99.90;;;;;;5033551;28;20445;-74
2021/08/09 08:12:58;;;;;;;2.67;1.85;;;19.80;99.90;;;;;;5050878;28;20051;-74
2021/08/09 08:15:24;;;;;;;3.25;1.70;;;19.80;99.90;;;;;;5052152;28;20426;-73
2021/08/09 08:17:50;;;;;;;4.43;2.05;;;19.70;99.90;;;;;;5053089;28;20032;-74
2021/08/09 08:20:15;;;;;;;4.65;2.00;;;19.70;99.90;;;;;;5047909;28;20029;-73
2021/08/09 08:22:41;;;;;;;4.00;1.88;;;19.60;99.90;;;;;;5052750;28;20545;-74
2021/08/09 08:25:08;;;;;;;3.70;1.80;;;19.70;99.90;;;;;;5039067;28;20037;-75
2021/08/09 08:27:34;;;;;;;4.35;2.72;;;19.80;99.90;;;;;;5047258;28;20131;-74
2021/08/09 08:29:59;;;;;;;4.22;2.00;;;19.80;99.90;;;;;;5060136;28;20165;-73
2021/08/09 08:32:26;;;;;;;4.03;1.60;;;19.80;99.90;;;;;;5054933;28;20377;-74
2021/08/09 08:34:52;;;;;;;4.32;1.88;;;19.80;99.90;;;;;;5052601;28;20044;-73
2021/08/09 08:37:19;;;;;;;5.57;2.22;;;19.80;99.90;;;;;;5057087;28;20420;-74
2021/08/09 08:39:44;;;;;;;4.53;1.60;;;20.00;99.90;;;;;;5052472;28;20385;-74
2021/08/09 08:42:13;;;;;;;4.97;1.88;;;20.10;99.90;;;;;;5056144;28;20036;-73
2021/08/09 08:44:39;;;;;;;5.47;1.98;;;20.20;99.90;;;;;;5051184;28;20056;-74
2021/08/09 08:47:06;;;;;;;6.05;1.90;;;20.20;99.90;;;;;;5033221;28;20056;-74
2021/08/09 08:49:32;;;;;;;6.82;1.80;;;20.10;99.90;;;;;;5055133;28;20023;-73
2021/08/09 08:51:58;;;;;;;7.32;1.70;;;20.20;99.90;;;;;;5060426;28;20539;-74
2021/08/09 08:54:24;;;;;;;5.50;2.03;;;20.10;99.90;;;;;;5050086;28;20056;-74
2021/08/09 08:56:49;;;;;;;2.83;1.60;;;20.10;99.90;;;;;;5049128;28;20484;-74
2021/08/09 08:59:17;;;;;;;8.55;1.98;;;20.20;99.90;;;;;;5053088;28;20029;-74
2021/08/09 09:01:45;;;;;;;6.68;2.00;;;20.30;99.90;;;;;;5047691;28;20067;-74
2021/08/09 09:04:32;;;;;;;3.30;1.63;;;20.20;99.90;;;;;;5033380;28;20518;-74
2021/08/09 09:07:02;;;;;;;4.95;1.95;;;20.20;99.90;;;;;;5052313;28;20354;-73
2021/08/09 09:09:39;;;;;;;3.70;1.67;;;20.20;99.90;;;;;;5053903;28;20448;-74
2021/08/09 09:12:15;;;;;;;5.30;1.98;;;20.10;99.90;;;;;;5054063;28;20016;-73
2021/08/09 09:14:41;;;;;;;5.72;1.70;;;20.10;99.90;;;;;;5049076;28;20717;-73
2021/08/09 09:17:06;;;;;;;4.30;1.35;;;19.90;99.90;;;;;;5033295;28;20037;-74
2021/08/09 09:19:41;;;;;;;9.15;2.45;;;20.10;99.90;;;;;;5054642;28;20037;-74
2021/08/09 09:22:20;;;;;;;5.05;1.83;;;20.20;99.90;;;;;;5055475;28;20414;-74
2021/08/09 09:24:49;;;;;;;4.00;1.67;;;20.20;99.90;;;;;;5045741;28;20120;-74
2021/08/09 09:27:33;;;;;;;4.93;1.50;;;20.20;99.90;;;;;;5052173;28;20075;-74
2021/08/09 09:30:20;;;;;;;5.68;1.73;;;20.20;99.90;;;;;;5049143;28;20025;-74
2021/08/09 09:33:00;;;;;;;7.95;2.10;;;20.30;99.90;;;;;;5050045;28;20028;-74
2021/08/09 09:35:26;;;;;;;5.95;1.85;;;20.30;99.90;;;;;;5043858;28;20041;-74
2021/08/09 09:37:52;;;;;;;6.68;1.83;;;20.40;99.90;;;;;;5052749;28;20017;-74
2021/08/09 09:40:20;;;;;;;3.63;1.50;;;20.30;99.90;;;;;;5035367;28;20017;-74
2021/08/09 09:42:47;;;;;;;6.40;2.15;;;20.30;99.90;;;;;;5050657;28;20032;-74
2021/08/09 09:45:27;;;;;;;6.72;1.98;;;20.30;99.90;;;;;;5048012;28;20048;-74
2021/08/09 09:48:09;;;;;;;6.60;1.60;;;20.60;99.90;;;;;;5047651;28;20017;-74
2021/08/09 09:50:36;;;;;;;7.90;1.88;;;20.80;99.90;;;;;;5027910;28;20400;-74
2021/08/09 09:53:18;;;;;;;6.40;2.30;;;20.90;99.90;;;;;;5055494;28;20102;-74
2021/08/09 09:55:48;;;;;;;5.10;1.73;;;20.90;99.90;;;;;;5058648;28;20078;-73
2021/08/09 09:58:14;;;;;;;4.53;1.80;;;21.10;99.90;;;;;;5053167;28;20016;-74
2021/08/09 10:00:42;;;;;;;7.75;1.70;;;21.50;99.90;;;;;;5044145;28;20366;-74
2021/08/09 10:03:10;;;;;;;4.35;1.67;;;21.60;99.90;;;;;;5046205;28;20401;-73
2021/08/09 10:05:39;;;;;;;6.72;2.15;;;21.50;99.90;;;;;;5046253;28;20621;-73
2021/08/09 10:08:16;;;;;;;2.65;1.45;;;21.40;99.90;;;;;;5050998;28;20017;-74
2021/08/09 10:10:50;;;;;;;4.82;2.28;;;21.50;99.90;;;;;;5066371;28;20063;-74
2021/08/09 10:13:18;;;;;;;5.47;1.50;;;21.80;99.90;;;;;;5027335;28;20018;-74
2021/08/09 10:15:49;;;;;;;4.07;1.92;;;22.00;99.90;;;;;;5050807;28;20025;-74
2021/08/09 10:18:18;;;;;;;5.63;1.67;;;22.00;99.90;;;;;;5049688;28;20055;-74
2021/08/09 10:20:44;;;;;;;5.80;2.22;;;22.30;99.90;;;;;;5046013;28;20139;-74
2021/08/09 10:23:09;;;;;;;8.88;1.75;;;22.30;99.90;;;;;;5054369;28;20504;-74
2021/08/09 10:25:45;;;;;;;4.22;1.10;;;22.20;99.90;;;;;;5063425;28;20029;-74
2021/08/09 10:28:10;;;;;;;6.78;1.38;;;22.00;99.90;;;;;;5026738;28;20072;-74
2021/08/09 10:30:37;;;;;;;5.20;1.40;;;21.80;99.90;;;;;;5053520;28;20435;-74
2021/08/09 10:33:10;;;;;;;4.95;1.55;;;21.70;99.90;;;;;;5042969;28;20017;-74
2021/08/09 10:35:39;;;;;;;1.73;1.20;;;21.50;99.90;;;;;;5051196;28;20059;-76
2021/08/09 10:38:25;;;;;;;1.90;1.30;;;21.50;99.90;;;;;;5057026;28;20481;-75
2021/08/09 10:41:14;;;;;;;3.90;1.42;;;21.60;99.90;;;;;;5040971;28;20029;-75
2021/08/09 10:44:01;;;;;;;5.18;1.50;;;21.80;99.90;;;;;;5048580;28;20037;-75
2021/08/09 10:46:43;;;;;;;2.90;1.52;;;21.90;99.90;;;;;;5026795;28;20545;-75
2021/08/09 10:49:30;;;;;;;6.25;2.03;;;21.90;99.90;;;;;;5049289;28;20035;-74
2021/08/09 10:51:55;;;;;;;2.35;1.40;;;22.00;99.90;;;;;;5051841;28;20036;-74
2021/08/09 10:54:33;;;;;;;6.40;2.03;;;21.90;99.90;;;;;;5033901;28;20017;-74
2021/08/09 10:57:00;;;;;;;3.50;1.58;;;21.90;99.90;;;;;;5055765;28;20035;-74
2021/08/09 10:59:45;;;;;;;3.47;1.13;;;21.90;99.90;;;;;;5045416;28;20048;-74
2021/08/09 11:02:35;;;;;;;4.93;1.58;;;21.70;99.90;;;;;;5053380;28;20021;-74
2021/08/09 11:05:13;;;;;;;5.22;1.52;;;21.60;99.90;;;;;;5052817;28;20037;-74
2021/08/09 11:07:40;;;;;;;4.25;1.73;;;21.70;99.90;;;;;;5048978;28;20037;-74
2021/08/09 11:10:06;;;;;;;2.55;1.35;;;21.60;99.90;;;;;;5051832;28;20024;-74
2021/08/09 11:12:32;;;;;;;4.35;1.65;;;21.60;99.90;;;;;;5050783;28;20037;-74
2021/08/09 11:17:28;;;;;;;4.53;1.48;;;21.90;99.90;;;;;;5057055;28;20036;-74
2021/08/09 11:20:12;;;;;;;8.00;1.60;;;21.90;99.90;;;;;;5054234;28;20129;-74
2021/08/09 11:22:44;;;;;;;4.85;1.75;;;21.80;99.90;;;;;;5042257;28;20025;-74
2021/08/09 11:25:29;;;;;;;3.35;1.25;;;21.60;99.90;;;;;;5052273;28;20033;-74
2021/08/09 11:28:08;;;;;;;6.78;2.17;;;21.60;99.90;;;;;;5057780;28;20024;-74
2021/08/09 11:30:37;;;;;;;3.63;1.55;;;22.00;99.90;;;;;;5055124;28;20033;-74
2021/08/09 11:33:04;;;;;;;2.47;1.13;;;22.40;99.90;;;;;;5052685;28;20376;-74
2021/08/09 11:35:31;;;;;;;4.68;1.80;;;22.40;99.90;;;;;;5058041;28;20048;-74
2021/08/09 11:37:58;;;;;;;2.33;1.30;;;22.50;99.90;;;;;;5059876;28;20029;-74
2021/08/09 11:40:44;;;;;;;5.28;1.85;;;22.50;99.90;;;;;;5052906;28;20423;-74
2021/08/09 11:43:12;;;;;;;3.70;1.45;;;22.30;99.90;;;;;;5046373;28;20033;-74
2021/08/09 11:45:38;;;;;;;1.08;0.98;;;22.20;99.90;;;;;;5051924;28;20074;-74
2021/08/09 11:48:06;;;;;;;4.15;1.20;;;22.10;99.90;;;;;;5050508;28;20063;-74
2021/08/09 11:50:41;;;;;;;4.57;1.27;;;22.00;99.90;;;;;;5049001;28;20082;-74
2021/08/09 11:53:09;;;;;;;3.05;1.00;;;21.90;99.90;;;;;;5053203;28;20028;-74
2021/08/09 11:55:36;;;;;;;5.07;1.48;;;21.90;99.90;;;;;;5048634;28;20044;-74
2021/08/09 11:58:02;;;;;;;4.30;1.27;;;21.90;99.90;;;;;;5053101;28;20527;-74
2021/08/09 12:00:39;;;;;;;5.03;1.30;;;21.80;99.90;;;;;;5053783;28;20081;-74
2021/08/09 12:03:12;;;;;;;4.88;1.17;;;21.80;99.90;;;;;;5058113;28;20462;-74
2021/08/09 12:05:39;;;;;;;3.38;1.00;;;22.00;99.90;;;;;;5049510;28;20037;-74
2021/08/09 12:08:06;;;;;;;1.77;1.13;;;22.30;99.90;;;;;;5053454;28;20021;-74
2021/08/09 12:10:36;;;;;;;1.85;1.00;;;22.30;99.90;;;;;;5063684;28;20055;-74
2021/08/09 12:13:23;;;;;;;5.47;1.17;;;22.30;99.90;;;;;;5056255;28;20105;-74
2021/08/09 12:16:24;;;;;;;6.13;1.65;;;22.40;99.90;;;;;;5053372;28;20039;-74
2021/08/09 12:18:54;;;;;;;3.70;1.30;;;22.80;99.90;;;;;;4944559;28;20151;-74
2021/08/09 12:21:21;;;;;;;2.92;1.10;;;23.10;99.90;;;;;;5036828;28;20501;-74
2021/08/09 12:23:57;;;;;;;2.40;1.00;;;23.20;99.90;;;;;;5051647;28;20029;-74
2021/08/09 12:26:32;;;;;;;2.75;1.40;;;23.20;99.90;;;;;;5049647;28;20021;-75
2021/08/09 12:29:00;;;;;;;1.30;1.20;;;23.10;99.90;;;;;;5060747;28;20036;-73
2021/08/09 12:31:45;;;;;;;3.08;1.10;;;22.50;99.90;;;;;;5054129;28;20083;-74
2021/08/09 12:34:12;;;;;;;5.30;1.20;;;22.60;99.90;;;;;;5037156;28;20392;-75
2021/08/09 12:36:39;;;;;;;4.63;1.25;;;22.70;99.90;;;;;;5052266;28;20177;-74
2021/08/09 12:39:07;;;;;;;2.60;1.58;;;22.80;99.90;;;;;;5037327;28;20087;-75
2021/08/09 12:41:34;;;;;;;1.70;1.10;;;23.20;99.90;;;;;;5060267;28;20097;-74
2021/08/09 12:44:05;;;;;;;2.20;1.40;;;23.40;99.90;;;;;;5058087;28;20025;-74
2021/08/09 12:46:35;;;;;;;2.25;1.52;;;23.60;99.90;;;;;;5049897;28;20021;-74
2021/08/09 12:49:00;;;;;;;2.92;1.25;;;23.80;99.90;;;;;;5047346;28;20052;-74
2021/08/09 12:51:27;;;;;;;2.58;1.63;;;23.60;99.90;;;;;;5056631;28;20025;-74
2021/08/09 12:53:52;;;;;;;1.48;1.13;;;23.80;99.90;;;;;;5052247;28;20017;-74
2021/08/09 12:56:18;;;;;;;3.10;1.05;;;23.90;99.90;;;;;;5049229;28;20032;-74